createdAt,value
2022-11-14T00:00:57.347Z,34.247
2022-11-14T00:05:59.017Z,26.11405
2022-11-14T00:11:00.646Z,16.0263
2022-11-14T00:16:02.320Z,9.0552
2022-11-14T00:21:03.948Z,6.3626
2022-11-14T00:26:05.584Z,1.7152
2022-11-14T00:31:07.263Z,0.8296
2022-11-14T00:36:08.959Z,0
2022-11-14T00:41:10.586Z,0
2022-11-14T00:46:12.315Z,0
2022-11-14T00:51:13.981Z,0
2022-11-14T00:56:15.633Z,0
2022-11-14T01:01:17.467Z,0
2022-11-14T01:06:19.254Z,0
2022-11-14T01:11:21.020Z,0
2022-11-14T01:16:22.841Z,0
2022-11-14T01:21:24.558Z,0
2022-11-14T01:26:26.458Z,0
2022-11-14T01:31:28.255Z,0
2022-11-14T01:36:30.015Z,0
2022-11-14T01:41:31.977Z,0
2022-11-14T01:46:33.789Z,0
2022-11-14T01:51:35.368Z,0
2022-11-14T01:56:37.084Z,0
2022-11-14T02:01:39.108Z,0
2022-11-14T02:06:40.838Z,0
2022-11-14T02:11:42.520Z,0
2022-11-14T02:17:00.850Z,0
2022-11-14T02:22:16.514Z,0
2022-11-14T02:27:18.142Z,0
2022-11-14T02:32:19.771Z,0
2022-11-14T02:37:21.621Z,0
2022-11-14T02:42:23.281Z,0
2022-11-14T02:47:24.920Z,0
2022-11-14T02:52:26.634Z,0
2022-11-14T02:57:28.281Z,0
2022-11-14T03:02:30.073Z,0
2022-11-14T03:07:31.847Z,0
2022-11-14T03:12:33.640Z,0
2022-11-14T03:17:35.385Z,0
2022-11-14T03:22:37.045Z,0
2022-11-14T03:27:38.850Z,0
2022-11-14T03:32:40.591Z,0
2022-11-14T03:37:42.289Z,0
2022-11-14T03:42:43.960Z,0
2022-11-14T03:47:45.621Z,0
2022-11-14T03:52:47.403Z,0
2022-11-14T03:57:49.233Z,0
2022-11-14T04:02:50.886Z,0
2022-11-14T04:07:52.712Z,0
2022-11-14T04:12:54.425Z,0
2022-11-14T04:17:56.224Z,0
2022-11-14T04:22:58.804Z,0
2022-11-14T04:28:00.462Z,0
2022-11-14T04:33:02.299Z,0
2022-11-14T04:38:04.120Z,0
2022-11-14T04:43:05.823Z,0
2022-11-14T04:48:07.839Z,0
2022-11-14T04:53:09.574Z,0
2022-11-14T04:58:11.466Z,0
2022-11-14T05:03:14.063Z,0
2022-11-14T05:08:15.899Z,0
2022-11-14T05:13:18.035Z,0
2022-11-14T05:18:20.220Z,0
2022-11-14T05:23:21.969Z,0
2022-11-14T05:28:23.688Z,0
2022-11-14T05:33:25.614Z,0
2022-11-14T05:38:28.459Z,0
2022-11-14T05:43:30.449Z,0
2022-11-14T05:48:32.698Z,0
2022-11-14T05:53:34.680Z,0
2022-11-14T05:58:36.709Z,0
2022-11-14T06:03:38.453Z,0
2022-11-14T06:08:40.692Z,0
2022-11-14T06:13:42.421Z,0
2022-11-14T06:18:44.184Z,0
2022-11-14T06:23:46.826Z,0
2022-11-14T06:28:48.564Z,0
2022-11-14T06:33:50.351Z,0
2022-11-14T06:38:52.336Z,0
2022-11-14T06:43:53.963Z,0
2022-11-14T06:48:55.601Z,0
2022-11-14T06:53:57.274Z,0
2022-11-14T06:58:58.892Z,0
2022-11-14T07:04:00.805Z,0
2022-11-14T07:09:02.694Z,0
2022-11-14T07:14:04.912Z,0
2022-11-14T07:19:06.766Z,0
2022-11-14T07:24:08.501Z,0
2022-11-14T07:29:10.551Z,0
2022-11-14T07:34:13.527Z,0
2022-11-14T07:39:15.243Z,0
2022-11-14T07:44:17.035Z,0
2022-11-14T07:49:18.961Z,0
2022-11-14T07:54:20.673Z,0
2022-11-14T07:59:22.337Z,0
2022-11-14T08:04:24.141Z,0
2022-11-14T08:09:26.016Z,0
2022-11-14T08:14:27.905Z,0
2022-11-14T08:19:29.706Z,0
2022-11-14T08:24:31.345Z,0
2022-11-14T08:29:32.987Z,0
2022-11-14T08:34:34.926Z,0
2022-11-14T08:39:36.688Z,0
2022-11-14T08:44:38.314Z,0
2022-11-14T08:49:39.956Z,0
2022-11-14T08:54:41.652Z,0
2022-11-14T08:59:43.334Z,0
2022-11-14T09:04:45.339Z,0
2022-11-14T09:09:47.147Z,0
2022-11-14T09:14:48.920Z,0
2022-11-14T09:19:50.835Z,0
2022-11-14T09:24:56.246Z,0
2022-11-14T09:29:57.995Z,0
2022-11-14T09:34:59.639Z,0
2022-11-14T09:40:01.359Z,0
2022-11-14T09:45:03.041Z,0
2022-11-14T09:50:04.693Z,0
2022-11-14T09:55:06.337Z,0
2022-11-14T10:00:08.068Z,0
2022-11-14T10:05:09.774Z,0
2022-11-14T10:10:11.405Z,0
2022-11-14T10:15:13.055Z,0
2022-11-14T10:20:14.715Z,0
2022-11-14T10:25:16.411Z,0
2022-11-14T10:30:18.078Z,0
2022-11-14T10:35:20.282Z,0
2022-11-14T10:40:21.995Z,0
2022-11-14T10:45:23.961Z,0
2022-11-14T10:50:25.690Z,0
2022-11-14T10:55:50.114Z,0
2022-11-14T11:00:59.641Z,0
2022-11-14T11:06:01.387Z,0
2022-11-14T11:11:03.067Z,0
2022-11-14T11:16:04.784Z,0
2022-11-14T11:21:06.457Z,0
2022-11-14T11:26:08.247Z,0
2022-11-14T11:31:09.944Z,0
2022-11-14T11:36:11.655Z,0
2022-11-14T11:41:26.021Z,0
2022-11-14T11:46:44.288Z,0
2022-11-14T11:51:45.923Z,0
2022-11-14T11:56:47.563Z,0
2022-11-14T12:01:49.249Z,0
2022-11-14T12:06:51.022Z,0
2022-11-14T12:11:52.789Z,0
2022-11-14T12:16:55.224Z,0
2022-11-14T12:21:58.857Z,0
2022-11-14T12:27:00.997Z,0
2022-11-14T12:32:02.632Z,0
2022-11-14T12:37:04.379Z,0
2022-11-14T12:42:06.526Z,0
2022-11-14T12:47:08.428Z,0
2022-11-14T12:52:10.167Z,0
2022-11-14T12:57:11.909Z,0
2022-11-14T13:02:17.988Z,0
2022-11-14T13:07:23.136Z,0
2022-11-14T13:12:24.837Z,0
2022-11-14T13:17:26.534Z,0
2022-11-14T13:22:28.537Z,0
2022-11-14T13:27:52.321Z,0
2022-11-14T13:33:02.380Z,0
2022-11-14T13:38:04.235Z,0
2022-11-14T13:43:06.016Z,0
2022-11-14T13:48:07.667Z,0
2022-11-14T13:53:09.474Z,0
2022-11-14T13:58:11.145Z,0
2022-11-14T14:03:12.815Z,0
2022-11-14T14:08:14.414Z,0
2022-11-14T14:13:16.092Z,0
2022-11-14T14:18:17.714Z,0
2022-11-14T14:23:19.330Z,0
2022-11-14T14:28:21.005Z,0
2022-11-14T14:33:22.648Z,0.88715
2022-11-14T14:38:24.437Z,1.16185
2022-11-14T14:43:26.144Z,0.4148
2022-11-14T14:48:27.954Z,2.50815
2022-11-14T14:53:29.851Z,4.83185
2022-11-14T14:58:31.852Z,6.17815
2022-11-14T15:03:36.840Z,11.80295
2022-11-14T15:08:39.130Z,14.49555
2022-11-14T15:13:40.743Z,24.76775
2022-11-14T15:18:42.427Z,25.69
2022-11-14T15:23:44.067Z,33.21445
2022-11-14T15:28:45.725Z,33.34375
2022-11-14T15:33:47.368Z,45.93965
2022-11-14T15:38:49.047Z,55.7878
2022-11-14T15:43:50.709Z,64.4741
2022-11-14T15:48:52.453Z,71.02115
2022-11-14T15:53:54.056Z,81.2382
2022-11-14T15:58:55.728Z,94.5719
2022-11-14T16:03:57.396Z,102.8893
2022-11-14T16:08:58.986Z,122.5856
2022-11-14T16:14:00.657Z,122.89935
2022-11-14T16:19:02.364Z,126.9934
2022-11-14T16:24:04.409Z,126.44005
2022-11-14T16:29:06.094Z,129.5567
2022-11-14T16:34:07.795Z,133.54045
2022-11-14T16:39:09.464Z,138.243
2022-11-14T16:44:11.302Z,154.8968
2022-11-14T16:49:12.940Z,166.6446
2022-11-14T16:54:14.544Z,182.85535
2022-11-14T16:59:16.276Z,192.15015
2022-11-14T17:04:18.034Z,210.0761
2022-11-14T17:09:19.640Z,222.00835
2022-11-14T17:14:21.239Z,230.08615
2022-11-14T17:19:23.044Z,245.3195
2022-11-14T17:24:30.014Z,235.71095
2022-11-14T17:29:33.061Z,241.6495
2022-11-14T17:34:34.928Z,251.86655
2022-11-14T17:39:36.597Z,275.60175
2022-11-14T17:44:38.223Z,279.4562
2022-11-14T17:49:39.952Z,267.65325
2022-11-14T17:54:41.711Z,287.7736
2022-11-14T17:59:43.418Z,297.25285
2022-11-14T18:04:45.161Z,306.54765
2022-11-14T18:09:46.844Z,300.92285
2022-11-14T18:14:48.449Z,307.101
2022-11-14T18:19:50.072Z,323.4962
2022-11-14T18:24:51.658Z,322.70325
2022-11-14T18:29:53.259Z,338.48995
2022-11-14T18:34:54.842Z,345.037
2022-11-14T18:39:56.602Z,362.4096
2022-11-14T18:44:58.232Z,341.367
2022-11-14T18:49:59.849Z,349.6844
2022-11-14T18:55:01.493Z,367.9241
2022-11-14T19:00:03.209Z,378.87895
2022-11-14T19:05:04.972Z,410.69195
2022-11-14T19:10:06.605Z,432.6568
2022-11-14T19:15:08.214Z,458.29165
2022-11-14T19:20:14.142Z,472.49245
2022-11-14T19:25:16.603Z,504.6572
2022-11-14T19:30:18.252Z,498.6255
2022-11-14T19:35:20.571Z,506.64815
2022-11-14T19:40:22.663Z,532.6519
2022-11-14T19:45:24.291Z,550.1538
2022-11-14T19:50:25.913Z,570.1087
2022-11-14T19:55:27.549Z,568.6331
2022-11-14T20:00:29.152Z,587.66575
2022-11-14T20:05:30.892Z,602.66135
2022-11-14T20:10:32.552Z,626.2728
2022-11-14T20:15:34.145Z,561.9776
2022-11-14T20:20:35.800Z,524.05875
2022-11-14T20:25:37.472Z,648.943
2022-11-14T20:30:39.127Z,548.313
2022-11-14T20:35:40.752Z,475.44365
2022-11-14T20:40:42.378Z,460.78265
2022-11-14T20:45:44.026Z,543.21095
2022-11-14T20:50:45.630Z,531.7009
2022-11-14T20:55:47.235Z,437.26805
2022-11-14T21:00:48.939Z,443.41005
2022-11-14T21:05:50.570Z,426.7011
2022-11-14T21:10:52.331Z,412.0211
2022-11-14T21:15:54.030Z,390.5906
2022-11-14T21:20:55.675Z,369.3084
2022-11-14T21:25:57.363Z,351.8255
2022-11-14T21:30:59.025Z,340.6862
2022-11-14T21:36:11.350Z,353.46655
2022-11-14T21:41:31.810Z,322.00345
2022-11-14T21:46:33.435Z,289.32335
2022-11-14T21:51:35.061Z,283.0159
2022-11-14T21:56:36.761Z,261.64055
2022-11-14T22:01:38.459Z,234.21635
2022-11-14T22:06:40.387Z,223.9803
2022-11-14T22:11:42.150Z,216.1231
2022-11-14T22:16:43.781Z,214.72165
2022-11-14T22:21:45.468Z,206.38525
2022-11-14T22:26:47.207Z,195.7993
2022-11-14T22:31:48.820Z,186.8734
2022-11-14T22:36:50.488Z,177.0804
2022-11-14T22:41:56.567Z,173.96375
2022-11-14T22:46:58.266Z,165.27745
2022-11-14T22:51:59.895Z,162.10565
2022-11-14T22:57:01.525Z,155.87235
2022-11-14T23:02:03.285Z,144.0694
2022-11-14T23:07:05.031Z,138.9428
2022-11-14T23:12:06.688Z,129.83245
2022-11-14T23:17:08.322Z,120.9617
2022-11-14T23:22:09.941Z,112.97705
2022-11-14T23:27:11.737Z,96.7853
2022-11-14T23:32:13.393Z,81.7364
2022-11-14T23:37:15.022Z,75.66855
2022-11-14T23:42:16.699Z,65.00845
2022-11-14T23:47:18.409Z,53.62955
2022-11-14T23:52:20.039Z,43.1729
2022-11-14T23:57:21.764Z,26.85185
